createdAt,value
2023-05-19T00:01:01.843Z,35.46
2023-05-19T00:02:06.220Z,35.59
2023-05-19T00:03:11.429Z,35.80
2023-05-19T00:04:15.570Z,35.65
2023-05-19T00:05:20.431Z,35.98
2023-05-19T00:06:25.399Z,36.22
2023-05-19T00:07:33.050Z,35.78
2023-05-19T00:08:39.284Z,35.96
2023-05-19T00:09:43.569Z,36.33
2023-05-19T00:10:47.083Z,36.20
2023-05-19T00:11:51.717Z,36.11
2023-05-19T00:12:55.066Z,35.77
2023-05-19T00:14:01.017Z,36.07
2023-05-19T00:15:05.431Z,35.73
2023-05-19T00:16:13.254Z,35.57
2023-05-19T00:17:18.256Z,35.36
2023-05-19T00:18:21.392Z,35.27
2023-05-19T00:19:26.438Z,35.55
2023-05-19T00:20:29.423Z,35.74
2023-05-19T00:21:34.254Z,35.84
2023-05-19T00:22:37.353Z,36.04
2023-05-19T00:23:41.396Z,35.75
2023-05-19T00:24:44.329Z,35.82
2023-05-19T00:25:48.283Z,35.71
2023-05-19T00:26:51.358Z,35.62
2023-05-19T00:27:55.434Z,35.88
2023-05-19T00:28:58.313Z,35.68
2023-05-19T00:30:02.752Z,35.87
2023-05-19T00:31:05.942Z,35.63
2023-05-19T00:32:11.760Z,35.84
2023-05-19T00:33:14.574Z,35.48
2023-05-19T00:34:18.592Z,35.69
2023-05-19T00:35:22.149Z,35.46
2023-05-19T00:36:26.286Z,35.28
2023-05-19T00:37:29.158Z,34.90
2023-05-19T00:38:34.263Z,34.85
2023-05-19T00:39:37.088Z,35.04
2023-05-19T00:40:41.678Z,34.79
2023-05-19T00:41:44.563Z,34.73
2023-05-19T00:42:48.564Z,34.78
2023-05-19T00:43:51.978Z,34.70
2023-05-19T00:44:56.225Z,34.73
2023-05-19T00:45:59.373Z,34.97
2023-05-19T00:47:03.981Z,34.93
2023-05-19T00:48:08.426Z,35.31
2023-05-19T00:49:12.698Z,35.43
2023-05-19T00:50:18.197Z,35.61
2023-05-19T00:51:21.396Z,35.86
2023-05-19T00:52:25.304Z,36.25
2023-05-19T00:53:29.467Z,36.15
2023-05-19T00:54:33.958Z,35.62
2023-05-19T00:55:38.629Z,35.46
2023-05-19T00:56:43.194Z,35.27
2023-05-19T00:57:47.438Z,35.43
2023-05-19T00:58:53.347Z,35.06
2023-05-19T00:59:56.878Z,35.11
2023-05-19T01:01:04.458Z,35.39
2023-05-19T01:02:08.334Z,35.04
2023-05-19T01:03:14.061Z,35.01
2023-05-19T01:04:17.280Z,34.92
2023-05-19T01:05:21.295Z,34.72
2023-05-19T01:06:25.653Z,34.64
2023-05-19T01:07:29.996Z,34.88
2023-05-19T01:08:33.466Z,34.79
2023-05-19T01:09:37.614Z,34.51
2023-05-19T01:10:40.485Z,34.53
2023-05-19T01:11:44.463Z,34.46
2023-05-19T01:12:48.374Z,34.56
2023-05-19T01:13:52.355Z,34.54
2023-05-19T01:14:55.665Z,34.68
2023-05-19T01:16:07.018Z,34.45
2023-05-19T01:17:16.348Z,34.07
2023-05-19T01:18:30.424Z,34.56
2023-05-19T01:19:51.316Z,34.49
2023-05-19T01:21:06.033Z,34.27
2023-05-19T01:22:33.804Z,34.19
2023-05-19T01:23:47.981Z,34.35
2023-05-19T01:25:22.894Z,34.32
2023-05-19T01:26:47.266Z,34.22
2023-05-19T01:28:18.966Z,34.47
2023-05-19T01:29:44.388Z,34.62
2023-05-19T01:30:53.091Z,34.41
2023-05-19T01:32:01.074Z,34.62
2023-05-19T01:33:07.661Z,34.29
2023-05-19T01:34:13.779Z,34.31
2023-05-19T01:35:17.781Z,34.36
2023-05-19T01:36:23.340Z,34.30
2023-05-19T01:37:27.448Z,34.17
2023-05-19T01:38:32.100Z,34.22
2023-05-19T01:39:36.133Z,34.32
2023-05-19T01:40:44.003Z,34.35
2023-05-19T01:41:48.034Z,34.40
2023-05-19T01:42:55.538Z,34.66
2023-05-19T01:44:00.477Z,34.70
2023-05-19T01:45:06.291Z,34.60
2023-05-19T01:46:11.263Z,34.36
2023-05-19T01:47:15.984Z,34.33
2023-05-19T01:48:19.759Z,34.22
2023-05-19T01:49:23.849Z,34.51
2023-05-19T01:50:27.554Z,34.42
2023-05-19T01:51:31.731Z,34.57
2023-05-19T01:52:34.956Z,34.40
2023-05-19T01:53:39.241Z,34.34
2023-05-19T01:54:42.211Z,34.23
2023-05-19T01:55:54.326Z,34.29
2023-05-19T01:57:04.998Z,34.59
2023-05-19T01:58:17.016Z,34.62
2023-05-19T01:59:34.286Z,34.67
2023-05-19T02:00:50.360Z,34.47
2023-05-19T02:01:59.112Z,34.68
2023-05-19T02:03:14.846Z,34.91
2023-05-19T02:04:26.510Z,34.65
2023-05-19T02:05:38.193Z,34.88
2023-05-19T02:06:46.301Z,34.57
2023-05-19T02:07:58.286Z,34.52
2023-05-19T02:09:08.811Z,34.54
2023-05-19T02:10:15.051Z,34.46
2023-05-19T02:11:27.058Z,34.63
2023-05-19T02:12:34.928Z,34.60
2023-05-19T02:13:44.986Z,34.87
2023-05-19T02:14:53.532Z,34.72
2023-05-19T02:16:03.125Z,34.78
2023-05-19T02:17:09.361Z,34.67
2023-05-19T02:18:18.176Z,34.99
2023-05-19T02:19:27.417Z,34.21
2023-05-19T02:20:33.323Z,34.41
2023-05-19T02:21:36.392Z,34.15
2023-05-19T02:22:40.390Z,34.01
2023-05-19T02:23:43.318Z,34.19
2023-05-19T02:24:48.009Z,34.11
2023-05-19T02:25:51.021Z,34.36
2023-05-19T02:26:55.812Z,34.11
2023-05-19T02:27:59.516Z,34.38
2023-05-19T02:29:07.411Z,34.14
2023-05-19T02:30:11.248Z,34.19
2023-05-19T02:31:15.632Z,33.98
2023-05-19T02:32:20.115Z,34.49
2023-05-19T02:33:26.294Z,34.34
2023-05-19T02:34:29.339Z,34.25
2023-05-19T02:35:33.988Z,34.40
2023-05-19T02:36:37.250Z,34.69
2023-05-19T02:37:41.530Z,34.98
2023-05-19T02:38:44.268Z,34.41
2023-05-19T02:39:48.366Z,33.87
2023-05-19T02:40:52.664Z,34.20
2023-05-19T02:41:56.767Z,33.91
2023-05-19T02:42:59.585Z,34.07
2023-05-19T02:44:03.734Z,33.86
2023-05-19T02:45:08.221Z,33.80
2023-05-19T02:46:12.247Z,33.73
2023-05-19T02:47:16.159Z,33.94
2023-05-19T02:48:22.620Z,34.23
2023-05-19T02:49:25.666Z,34.44
2023-05-19T02:50:29.996Z,34.21
2023-05-19T02:51:32.957Z,34.59
2023-05-19T02:52:37.056Z,34.73
2023-05-19T02:53:39.990Z,34.97
2023-05-19T02:54:44.094Z,34.80
2023-05-19T02:55:47.208Z,34.81
2023-05-19T02:56:51.145Z,35.03
2023-05-19T02:57:54.023Z,35.09
2023-05-19T02:58:58.821Z,35.12
2023-05-19T03:00:01.986Z,35.59
2023-05-19T03:01:09.816Z,35.44
2023-05-19T03:02:12.765Z,35.39
2023-05-19T03:03:16.990Z,35.69
2023-05-19T03:04:21.409Z,35.89
2023-05-19T03:05:25.489Z,35.77
2023-05-19T03:06:28.574Z,35.79
2023-05-19T03:07:33.916Z,35.89
2023-05-19T03:08:37.102Z,36.44
2023-05-19T03:09:41.969Z,36.26
2023-05-19T03:10:46.119Z,36.24
2023-05-19T03:11:50.265Z,36.79
2023-05-19T03:12:53.392Z,36.62
2023-05-19T03:13:57.430Z,36.51
2023-05-19T03:15:00.535Z,37.08
2023-05-19T03:16:08.357Z,36.55
2023-05-19T03:17:11.521Z,37.19
2023-05-19T03:18:16.839Z,37.16
2023-05-19T03:19:21.271Z,37.21
2023-05-19T03:20:25.735Z,37.64
2023-05-19T03:21:28.815Z,38.01
2023-05-19T03:22:33.668Z,38.37
2023-05-19T03:23:36.570Z,38.29
2023-05-19T03:24:41.107Z,38.77
2023-05-19T03:25:43.918Z,39.00
2023-05-19T03:26:48.123Z,39.22
2023-05-19T03:27:50.956Z,39.41
2023-05-19T03:28:55.001Z,39.57
2023-05-19T03:29:57.989Z,38.94
2023-05-19T03:31:02.193Z,38.80
2023-05-19T03:32:10.122Z,39.40
2023-05-19T03:33:14.741Z,39.12
2023-05-19T03:34:18.295Z,39.34
2023-05-19T03:35:24.437Z,39.45
2023-05-19T03:36:32.300Z,39.48
2023-05-19T03:37:36.486Z,39.36
2023-05-19T03:38:40.445Z,39.34
2023-05-19T03:39:43.475Z,39.73
2023-05-19T03:40:47.896Z,39.69
2023-05-19T03:41:50.829Z,39.37
2023-05-19T03:42:54.832Z,39.54
2023-05-19T03:43:57.962Z,39.38
2023-05-19T03:45:01.850Z,39.49
2023-05-19T03:46:07.507Z,39.62
2023-05-19T03:47:30.016Z,39.45
2023-05-19T03:48:57.487Z,39.45
2023-05-19T03:50:19.006Z,39.05
2023-05-19T03:51:35.320Z,39.16
2023-05-19T03:52:56.629Z,39.15
2023-05-19T03:54:06.292Z,39.45
2023-05-19T03:55:10.200Z,39.71
2023-05-19T03:56:17.008Z,40.10
2023-05-19T03:57:20.270Z,40.25
2023-05-19T03:58:25.030Z,40.42
2023-05-19T03:59:29.572Z,40.77
2023-05-19T04:00:34.195Z,40.86
2023-05-19T04:01:37.315Z,40.96
2023-05-19T04:02:41.626Z,41.18
2023-05-19T04:03:44.536Z,40.90
2023-05-19T04:04:48.783Z,41.00
2023-05-19T04:05:51.981Z,41.24
2023-05-19T04:06:58.197Z,41.56
2023-05-19T04:08:02.346Z,41.90
2023-05-19T04:09:13.069Z,41.78
2023-05-19T04:10:17.130Z,41.40
2023-05-19T04:11:20.384Z,41.26
2023-05-19T04:12:24.308Z,41.27
2023-05-19T04:13:28.994Z,41.42
2023-05-19T04:14:33.173Z,41.40
2023-05-19T04:15:36.717Z,40.92
2023-05-19T04:16:40.712Z,40.79
2023-05-19T04:17:46.272Z,40.75
2023-05-19T04:18:49.193Z,40.60
2023-05-19T04:19:53.241Z,40.61
2023-05-19T04:20:57.851Z,40.31
2023-05-19T04:22:04.226Z,40.74
2023-05-19T04:23:07.044Z,40.06
2023-05-19T04:24:11.356Z,40.35
2023-05-19T04:25:14.161Z,39.87
2023-05-19T04:26:19.536Z,39.68
2023-05-19T04:27:22.445Z,39.62
2023-05-19T04:28:26.732Z,39.32
2023-05-19T04:29:29.958Z,38.73
2023-05-19T04:30:34.649Z,38.13
2023-05-19T04:31:38.100Z,37.82
2023-05-19T04:32:43.574Z,38.04
2023-05-19T04:33:47.617Z,37.61
2023-05-19T04:34:52.242Z,37.46
2023-05-19T04:35:59.901Z,37.14
2023-05-19T04:37:07.337Z,36.96
2023-05-19T04:38:12.223Z,36.72
2023-05-19T04:39:18.086Z,36.53
2023-05-19T04:40:24.069Z,36.37
2023-05-19T04:41:29.615Z,36.44
2023-05-19T04:42:33.341Z,36.63
2023-05-19T04:43:42.116Z,36.33
2023-05-19T04:44:45.546Z,36.46
2023-05-19T04:45:50.561Z,36.63
2023-05-19T04:46:54.726Z,36.76
2023-05-19T04:48:00.662Z,36.86
2023-05-19T04:49:03.468Z,36.60
2023-05-19T04:50:09.675Z,36.46
2023-05-19T04:51:14.645Z,36.28
2023-05-19T04:52:22.016Z,36.54
2023-05-19T04:53:26.069Z,36.41
2023-05-19T04:54:30.210Z,36.07
2023-05-19T04:55:33.106Z,36.31
2023-05-19T04:56:37.489Z,36.34
2023-05-19T04:57:40.710Z,36.28
2023-05-19T04:58:44.965Z,36.90
2023-05-19T04:59:48.289Z,37.12
2023-05-19T05:00:52.735Z,36.59
2023-05-19T05:01:56.584Z,36.70
2023-05-19T05:03:05.622Z,36.34
2023-05-19T05:04:09.156Z,36.60
2023-05-19T05:05:13.154Z,36.96
2023-05-19T05:06:16.521Z,36.74
2023-05-19T05:07:23.126Z,36.09
2023-05-19T05:08:28.025Z,36.10
2023-05-19T05:09:32.146Z,36.26
2023-05-19T05:10:36.224Z,36.96
2023-05-19T05:11:40.715Z,37.15
2023-05-19T05:12:45.118Z,37.23
2023-05-19T05:13:49.742Z,36.98
2023-05-19T05:14:54.187Z,37.14
2023-05-19T05:15:57.810Z,36.95
2023-05-19T05:17:03.324Z,36.93
2023-05-19T05:18:08.353Z,37.07
2023-05-19T05:19:12.887Z,37.08
2023-05-19T05:20:16.930Z,36.88
2023-05-19T05:21:21.548Z,37.21
2023-05-19T05:22:26.734Z,37.56
2023-05-19T05:23:31.351Z,37.26
2023-05-19T05:24:35.021Z,37.03
2023-05-19T05:25:41.496Z,36.45
2023-05-19T05:26:44.996Z,36.41
2023-05-19T05:27:48.790Z,36.56
2023-05-19T05:28:51.899Z,36.27
2023-05-19T05:29:58.619Z,36.26
2023-05-19T05:31:03.032Z,35.89
2023-05-19T05:32:08.279Z,36.01
2023-05-19T05:33:12.142Z,34.81
2023-05-19T05:34:18.453Z,34.01
2023-05-19T05:35:24.161Z,33.86
2023-05-19T05:36:28.145Z,33.44
2023-05-19T05:37:32.755Z,33.52
2023-05-19T05:38:37.570Z,33.81
2023-05-19T05:39:40.512Z,33.92
2023-05-19T05:40:44.378Z,34.18
2023-05-19T05:41:47.972Z,34.14
2023-05-19T05:42:51.722Z,34.37
2023-05-19T05:43:58.539Z,34.44
2023-05-19T05:45:01.478Z,34.74
2023-05-19T05:46:08.294Z,34.73
2023-05-19T05:47:12.238Z,34.44
2023-05-19T05:48:17.100Z,34.58
2023-05-19T05:49:23.080Z,34.37
2023-05-19T05:50:30.016Z,33.68
2023-05-19T05:51:35.458Z,33.22
2023-05-19T05:52:46.257Z,32.90
2023-05-19T05:53:59.628Z,32.37
2023-05-19T05:55:14.437Z,31.99
2023-05-19T05:56:18.965Z,32.20
2023-05-19T05:57:27.296Z,32.50
2023-05-19T05:58:32.979Z,33.37
2023-05-19T05:59:36.309Z,32.98
2023-05-19T06:00:40.107Z,32.97
2023-05-19T06:01:44.268Z,34.17
2023-05-19T06:02:51.460Z,34.19
2023-05-19T06:03:57.055Z,33.29
2023-05-19T06:05:00.619Z,33.16
2023-05-19T06:06:05.040Z,33.00
2023-05-19T06:07:08.156Z,34.10
2023-05-19T06:08:17.519Z,34.19
2023-05-19T06:09:20.481Z,34.22
2023-05-19T06:10:27.384Z,34.54
2023-05-19T06:11:33.702Z,34.85
2023-05-19T06:12:40.347Z,35.49
2023-05-19T06:13:44.538Z,35.89
2023-05-19T06:14:54.894Z,35.80
2023-05-19T06:16:28.336Z,35.89
2023-05-19T06:17:31.587Z,36.35
2023-05-19T06:18:35.590Z,36.60
2023-05-19T06:19:38.364Z,36.53
2023-05-19T06:20:42.277Z,36.89
2023-05-19T06:21:45.245Z,36.98
2023-05-19T06:22:49.874Z,36.97
2023-05-19T06:23:56.975Z,36.52
2023-05-19T06:25:00.919Z,36.82
2023-05-19T06:26:04.542Z,36.87
2023-05-19T06:27:08.988Z,35.91
2023-05-19T06:28:12.011Z,35.20
2023-05-19T06:29:15.963Z,34.54
2023-05-19T06:30:19.110Z,34.54
2023-05-19T06:31:46.622Z,34.75
2023-05-19T06:32:52.339Z,34.63
2023-05-19T06:33:57.945Z,34.83
2023-05-19T06:35:01.136Z,34.75
2023-05-19T06:36:05.302Z,34.52
2023-05-19T06:37:08.838Z,34.26
2023-05-19T06:38:12.724Z,34.02
2023-05-19T06:39:18.350Z,34.30
2023-05-19T06:40:21.700Z,34.24
2023-05-19T06:41:25.566Z,34.31
2023-05-19T06:42:28.617Z,34.48
2023-05-19T06:43:44.687Z,34.36
2023-05-19T06:44:50.451Z,34.11
2023-05-19T06:45:54.585Z,34.80
2023-05-19T06:46:58.876Z,34.27
2023-05-19T06:48:02.945Z,34.57
2023-05-19T06:49:07.409Z,34.85
2023-05-19T06:50:16.542Z,34.90
2023-05-19T06:51:22.101Z,34.80
2023-05-19T06:52:30.788Z,34.70
2023-05-19T06:53:35.171Z,34.48
2023-05-19T06:54:44.917Z,36.00
2023-05-19T06:55:58.758Z,36.59
2023-05-19T06:57:07.151Z,35.60
2023-05-19T06:58:11.073Z,35.90
2023-05-19T06:59:14.809Z,35.25
2023-05-19T07:00:21.189Z,35.39
2023-05-19T07:01:28.222Z,36.82
2023-05-19T07:02:34.782Z,37.88
2023-05-19T07:03:41.197Z,37.88
2023-05-19T07:04:46.276Z,38.02
2023-05-19T07:05:51.941Z,37.62
2023-05-19T07:06:55.946Z,37.16
2023-05-19T07:07:59.337Z,37.03
2023-05-19T07:09:05.877Z,37.29
2023-05-19T07:10:11.505Z,37.27
2023-05-19T07:11:16.468Z,36.86
2023-05-19T07:12:20.880Z,36.22
2023-05-19T07:13:27.220Z,36.35
2023-05-19T07:14:31.416Z,36.06
2023-05-19T07:15:35.279Z,35.85
2023-05-19T07:16:39.425Z,35.52
2023-05-19T07:17:42.381Z,35.56
2023-05-19T07:18:46.757Z,35.66
2023-05-19T07:19:49.548Z,35.64
2023-05-19T07:20:54.213Z,36.44
2023-05-19T07:21:59.709Z,36.47
2023-05-19T07:23:03.007Z,36.73
2023-05-19T07:24:07.232Z,36.81
2023-05-19T07:25:12.396Z,36.79
2023-05-19T07:26:17.472Z,37.10
2023-05-19T07:27:21.483Z,36.73
2023-05-19T07:28:24.205Z,37.04
2023-05-19T07:29:28.310Z,36.34
2023-05-19T07:30:31.362Z,36.59
2023-05-19T07:31:35.845Z,37.03
2023-05-19T07:32:39.698Z,36.77
2023-05-19T07:33:43.751Z,36.94
2023-05-19T07:34:47.809Z,37.12
2023-05-19T07:35:50.680Z,37.09
2023-05-19T07:36:54.496Z,36.76
2023-05-19T07:37:58.383Z,34.94
2023-05-19T07:39:01.223Z,34.82
2023-05-19T07:40:07.036Z,35.21
2023-05-19T07:41:11.305Z,36.00
2023-05-19T07:42:15.256Z,35.50
2023-05-19T07:43:18.612Z,35.81
2023-05-19T07:44:22.610Z,36.64
2023-05-19T07:45:25.449Z,35.95
2023-05-19T07:46:29.528Z,35.94
2023-05-19T07:47:32.514Z,35.60
2023-05-19T07:48:36.553Z,35.76
2023-05-19T07:49:40.332Z,36.12
2023-05-19T07:50:43.204Z,36.40
2023-05-19T07:51:47.235Z,36.24
2023-05-19T07:52:50.029Z,36.35
2023-05-19T07:53:54.285Z,36.54
2023-05-19T07:54:58.925Z,36.41
2023-05-19T07:56:01.681Z,36.58
2023-05-19T07:57:07.418Z,36.50
2023-05-19T07:58:11.361Z,36.48
2023-05-19T07:59:15.360Z,35.90
2023-05-19T08:00:19.700Z,36.21
2023-05-19T08:01:22.704Z,36.28
2023-05-19T08:02:26.557Z,35.92
2023-05-19T08:03:31.011Z,35.87
2023-05-19T08:04:35.417Z,35.59
2023-05-19T08:05:39.492Z,35.86
2023-05-19T08:06:43.020Z,35.62
2023-05-19T08:07:47.271Z,35.65
2023-05-19T08:08:51.044Z,35.92
2023-05-19T08:09:54.823Z,35.69
2023-05-19T08:10:58.847Z,35.19
2023-05-19T08:12:02.029Z,34.62
2023-05-19T08:13:07.329Z,35.00
2023-05-19T08:14:11.081Z,34.76
2023-05-19T08:15:14.857Z,33.83
2023-05-19T08:16:18.874Z,33.82
2023-05-19T08:17:22.284Z,34.12
2023-05-19T08:18:26.178Z,34.48
2023-05-19T08:19:30.013Z,33.84
2023-05-19T08:20:34.429Z,33.89
2023-05-19T08:21:38.396Z,34.05
2023-05-19T08:22:41.533Z,34.25
2023-05-19T08:23:45.492Z,34.66
2023-05-19T08:24:51.959Z,34.67
2023-05-19T08:25:54.747Z,33.79
2023-05-19T08:26:58.635Z,33.66
2023-05-19T08:28:01.448Z,33.11
2023-05-19T08:29:06.928Z,33.31
2023-05-19T08:30:10.891Z,33.38
2023-05-19T08:31:14.803Z,33.41
2023-05-19T08:32:18.783Z,33.52
2023-05-19T08:33:22.014Z,33.44
2023-05-19T08:34:25.896Z,33.44
2023-05-19T08:35:28.874Z,33.69
2023-05-19T08:36:34.050Z,32.88
2023-05-19T08:37:38.382Z,32.60
2023-05-19T08:38:42.261Z,32.19
2023-05-19T08:39:45.167Z,31.74
2023-05-19T08:40:49.852Z,32.55
2023-05-19T08:41:53.320Z,32.95
2023-05-19T08:42:57.195Z,32.75
2023-05-19T08:44:00.327Z,33.10
2023-05-19T08:45:06.364Z,32.57
2023-05-19T08:46:16.670Z,32.64
2023-05-19T08:47:20.331Z,32.55
2023-05-19T08:48:24.236Z,32.20
2023-05-19T08:49:28.425Z,31.90
2023-05-19T08:50:36.886Z,32.07
2023-05-19T08:51:48.592Z,32.28
2023-05-19T08:52:55.188Z,32.43
2023-05-19T08:54:16.093Z,32.29
2023-05-19T08:55:30.040Z,31.39
2023-05-19T08:56:34.610Z,31.02
2023-05-19T08:57:39.816Z,31.20
2023-05-19T08:58:44.538Z,30.94
2023-05-19T08:59:49.505Z,30.71
2023-05-19T09:00:55.476Z,30.72
2023-05-19T09:01:59.749Z,31.30
2023-05-19T09:03:17.488Z,30.92
2023-05-19T09:04:30.170Z,31.35
2023-05-19T09:05:33.950Z,30.71
2023-05-19T09:06:41.184Z,30.04
2023-05-19T09:07:45.472Z,30.01
2023-05-19T09:08:49.480Z,29.98
2023-05-19T09:09:52.474Z,29.93
2023-05-19T09:10:56.387Z,29.86
2023-05-19T09:12:00.448Z,29.86
2023-05-19T09:13:03.148Z,29.86
2023-05-19T09:14:06.985Z,29.40
2023-05-19T09:15:11.231Z,29.28
2023-05-19T09:16:16.942Z,29.75
2023-05-19T09:17:19.876Z,30.01
2023-05-19T09:18:25.457Z,30.58
2023-05-19T09:19:30.618Z,29.68
2023-05-19T09:20:33.406Z,29.09
2023-05-19T09:21:37.551Z,29.45
2023-05-19T09:22:44.020Z,29.08
2023-05-19T09:23:49.028Z,28.96
2023-05-19T09:24:53.156Z,28.90
2023-05-19T09:25:57.840Z,29.46
2023-05-19T09:27:02.375Z,29.03
2023-05-19T09:28:10.428Z,27.41
2023-05-19T09:29:14.727Z,26.41
2023-05-19T09:30:18.413Z,26.50
2023-05-19T09:31:23.868Z,26.21
2023-05-19T09:32:27.873Z,26.45
2023-05-19T09:33:34.205Z,26.27
2023-05-19T09:34:42.102Z,26.14
2023-05-19T09:35:48.866Z,26.08
2023-05-19T09:36:53.830Z,25.88
2023-05-19T09:37:56.790Z,26.53
2023-05-19T09:39:00.888Z,26.60
2023-05-19T09:40:05.794Z,26.84
2023-05-19T09:41:10.361Z,26.72
2023-05-19T09:42:16.916Z,26.04
2023-05-19T09:43:19.963Z,25.49
2023-05-19T09:44:24.825Z,25.58
2023-05-19T09:45:28.880Z,25.64
2023-05-19T09:46:36.041Z,25.71
2023-05-19T09:47:41.406Z,26.29
2023-05-19T09:48:45.327Z,26.53
2023-05-19T09:49:48.265Z,26.14
2023-05-19T09:50:53.386Z,25.98
2023-05-19T09:51:58.056Z,24.71
2023-05-19T09:53:01.325Z,25.13
2023-05-19T09:54:05.627Z,25.11
2023-05-19T09:55:11.332Z,24.68
2023-05-19T09:56:16.440Z,25.27
2023-05-19T09:57:25.794Z,26.06
2023-05-19T09:58:34.854Z,26.04
2023-05-19T09:59:39.563Z,25.84
2023-05-19T10:00:44.612Z,25.95
2023-05-19T10:01:49.433Z,26.68
2023-05-19T10:02:54.422Z,26.28
2023-05-19T10:03:59.492Z,26.10
2023-05-19T10:05:04.600Z,26.89
2023-05-19T10:06:11.070Z,26.94
2023-05-19T10:07:16.388Z,26.61
2023-05-19T10:08:20.513Z,26.49
2023-05-19T10:09:25.220Z,26.16
2023-05-19T10:10:30.298Z,26.92
2023-05-19T10:11:34.122Z,26.79
2023-05-19T10:12:39.609Z,26.63
2023-05-19T10:13:43.507Z,26.33
2023-05-19T10:14:48.367Z,25.90
2023-05-19T10:17:01.220Z,26.06
2023-05-19T10:18:05.372Z,25.60
2023-05-19T10:19:09.617Z,25.29
2023-05-19T10:20:15.487Z,24.91
2023-05-19T10:21:18.761Z,25.94
2023-05-19T10:22:23.228Z,25.32
2023-05-19T10:23:27.084Z,25.40
2023-05-19T10:24:30.084Z,25.58
2023-05-19T10:25:35.036Z,25.28
2023-05-19T10:26:39.471Z,25.71
2023-05-19T10:27:46.538Z,25.29
2023-05-19T10:28:51.776Z,25.03
2023-05-19T10:29:59.071Z,25.19
2023-05-19T10:31:07.291Z,24.87
2023-05-19T10:32:24.958Z,24.85
2023-05-19T10:33:39.057Z,24.53
2023-05-19T10:35:20.767Z,24.45
2023-05-19T10:36:44.645Z,23.85
2023-05-19T10:37:59.226Z,24.38
2023-05-19T10:39:08.487Z,23.69
2023-05-19T10:40:20.309Z,23.77
2023-05-19T10:41:30.161Z,23.68
2023-05-19T10:42:42.474Z,23.72
2023-05-19T10:44:02.027Z,23.19
2023-05-19T10:45:14.302Z,23.61
2023-05-19T10:46:18.292Z,22.99
2023-05-19T10:47:27.111Z,23.00
2023-05-19T10:48:34.929Z,22.54
2023-05-19T10:49:39.368Z,22.61
2023-05-19T10:50:45.583Z,22.24
2023-05-19T10:51:49.813Z,22.47
2023-05-19T10:52:54.332Z,21.89
2023-05-19T10:53:59.118Z,22.04
2023-05-19T10:55:03.562Z,21.89
2023-05-19T10:56:08.326Z,21.54
2023-05-19T10:57:17.686Z,20.62
2023-05-19T10:58:41.758Z,20.85
2023-05-19T10:59:46.088Z,20.53
2023-05-19T11:01:01.743Z,21.40
2023-05-19T11:02:06.310Z,21.41
2023-05-19T11:04:41.725Z,21.56
2023-05-19T11:05:46.553Z,21.35
2023-05-19T11:06:53.906Z,21.48
2023-05-19T11:08:02.632Z,21.87
2023-05-19T11:09:17.480Z,21.38
2023-05-19T11:10:25.225Z,21.60
2023-05-19T11:11:45.517Z,21.03
2023-05-19T11:12:48.446Z,20.92
2023-05-19T11:13:56.581Z,20.86
2023-05-19T11:15:01.352Z,21.11
2023-05-19T11:16:09.635Z,21.09
2023-05-19T11:17:16.230Z,21.60
2023-05-19T11:18:22.219Z,21.87
2023-05-19T11:19:28.036Z,21.71
2023-05-19T11:20:34.958Z,21.25
2023-05-19T11:21:49.431Z,20.71
2023-05-19T11:23:06.403Z,20.93
2023-05-19T11:24:09.444Z,20.11
2023-05-19T11:25:13.525Z,19.72
2023-05-19T11:26:16.605Z,19.51
2023-05-19T11:27:27.194Z,20.01
2023-05-19T11:28:32.274Z,19.92
2023-05-19T11:29:35.434Z,19.71
2023-05-19T11:30:40.226Z,19.62
2023-05-19T11:31:45.994Z,20.34
2023-05-19T11:32:50.270Z,19.72
2023-05-19T11:33:56.192Z,19.82
2023-05-19T11:34:59.019Z,20.08
2023-05-19T11:36:03.310Z,19.36
2023-05-19T11:37:07.282Z,18.96
2023-05-19T11:38:12.812Z,19.31
2023-05-19T11:39:17.104Z,19.34
2023-05-19T11:40:23.131Z,19.01
2023-05-19T11:41:28.679Z,18.88
2023-05-19T11:42:35.727Z,18.99
2023-05-19T11:43:39.728Z,19.49
2023-05-19T11:44:46.228Z,19.88
2023-05-19T11:45:51.623Z,19.92
2023-05-19T11:46:54.684Z,19.93
2023-05-19T11:48:03.154Z,19.68
2023-05-19T11:49:08.141Z,19.46
2023-05-19T11:50:14.193Z,18.98
2023-05-19T11:51:18.284Z,19.37
2023-05-19T11:52:23.995Z,19.22
2023-05-19T11:53:33.369Z,18.59
2023-05-19T11:54:39.581Z,18.97
2023-05-19T11:55:47.978Z,18.47
2023-05-19T11:56:51.015Z,18.31
2023-05-19T11:58:05.211Z,18.29
2023-05-19T11:59:10.218Z,17.97
2023-05-19T12:00:15.840Z,17.30
2023-05-19T12:01:19.788Z,17.85
2023-05-19T12:02:26.284Z,18.25
2023-05-19T12:03:30.004Z,17.90
2023-05-19T12:04:35.522Z,17.41
2023-05-19T12:05:43.435Z,17.52
2023-05-19T12:06:49.779Z,17.47
2023-05-19T12:07:53.976Z,17.04
2023-05-19T12:08:57.232Z,17.12
2023-05-19T12:10:04.819Z,17.40
2023-05-19T12:11:08.860Z,17.65
2023-05-19T12:12:15.263Z,17.98
2023-05-19T12:13:19.352Z,17.75
2023-05-19T12:14:23.543Z,16.88
2023-05-19T12:15:26.698Z,17.16
2023-05-19T12:16:36.995Z,17.13
2023-05-19T12:17:40.632Z,16.99
2023-05-19T12:18:44.866Z,16.97
2023-05-19T12:19:50.118Z,17.07
2023-05-19T12:20:54.153Z,17.23
2023-05-19T12:21:57.124Z,17.17
2023-05-19T12:23:02.309Z,17.61
2023-05-19T12:24:06.946Z,16.99
2023-05-19T12:25:11.558Z,17.25
2023-05-19T12:26:14.620Z,17.26
2023-05-19T12:27:20.901Z,16.75
2023-05-19T12:28:25.032Z,17.38
2023-05-19T12:29:29.434Z,17.33
2023-05-19T12:30:35.159Z,17.63
2023-05-19T12:31:38.874Z,17.00
2023-05-19T12:32:42.907Z,17.17
2023-05-19T12:33:46.445Z,17.30
2023-05-19T12:34:51.924Z,17.35
2023-05-19T12:35:56.101Z,17.62
2023-05-19T12:36:59.160Z,17.58
2023-05-19T12:38:06.138Z,17.51
2023-05-19T12:39:09.740Z,17.72
2023-05-19T12:40:16.988Z,17.90
2023-05-19T12:41:20.152Z,17.71
2023-05-19T12:42:25.470Z,17.21
2023-05-19T12:43:29.523Z,17.17
2023-05-19T12:44:37.023Z,16.69
2023-05-19T12:45:42.842Z,17.18
2023-05-19T12:46:45.817Z,17.26
2023-05-19T12:47:51.384Z,17.35
2023-05-19T12:49:01.097Z,17.33
2023-05-19T12:50:09.512Z,17.01
2023-05-19T12:51:18.363Z,16.42
2023-05-19T12:52:23.557Z,16.23
2023-05-19T12:53:28.729Z,16.71
2023-05-19T12:54:34.196Z,16.95
2023-05-19T12:55:41.095Z,17.26
2023-05-19T12:56:51.811Z,17.21
2023-05-19T12:57:58.537Z,17.31
2023-05-19T12:59:02.062Z,17.56
2023-05-19T13:00:08.646Z,17.09
2023-05-19T13:01:18.742Z,17.47
2023-05-19T13:02:21.960Z,17.27
2023-05-19T13:03:26.117Z,17.60
2023-05-19T13:04:29.246Z,17.16
2023-05-19T13:05:36.043Z,16.56
2023-05-19T13:06:40.115Z,16.67
2023-05-19T13:07:43.093Z,16.87
2023-05-19T13:08:48.873Z,17.40
2023-05-19T13:09:52.695Z,17.35
2023-05-19T13:11:06.993Z,17.08
2023-05-19T13:12:10.170Z,17.34
2023-05-19T13:13:15.474Z,17.94
2023-05-19T13:14:19.260Z,19.54
2023-05-19T13:15:26.753Z,20.04
2023-05-19T13:16:31.142Z,21.36
2023-05-19T13:17:35.227Z,21.70
2023-05-19T13:18:39.428Z,22.33
2023-05-19T13:19:42.926Z,22.95
2023-05-19T13:20:50.463Z,23.02
2023-05-19T13:21:53.489Z,23.55
2023-05-19T13:22:58.804Z,24.40
2023-05-19T13:24:04.379Z,24.50
2023-05-19T13:25:09.187Z,24.98
2023-05-19T13:26:13.882Z,25.05
2023-05-19T13:27:16.904Z,25.79
2023-05-19T13:28:20.915Z,25.18
2023-05-19T13:29:23.824Z,25.56
2023-05-19T13:30:28.246Z,25.68
2023-05-19T13:31:31.499Z,25.58
2023-05-19T13:32:35.674Z,25.78
2023-05-19T13:33:45.701Z,25.88
2023-05-19T13:34:48.648Z,25.46
2023-05-19T13:35:54.224Z,25.32
2023-05-19T13:36:57.034Z,25.53
2023-05-19T13:38:01.015Z,25.13
2023-05-19T13:39:03.884Z,24.39
2023-05-19T13:40:09.143Z,25.35
2023-05-19T13:41:13.851Z,25.12
2023-05-19T13:42:18.238Z,25.67
2023-05-19T13:43:22.431Z,25.72
2023-05-19T13:44:26.033Z,26.48
2023-05-19T13:45:29.924Z,26.54
2023-05-19T13:46:44.599Z,27.07
2023-05-19T13:47:49.825Z,27.43
2023-05-19T13:48:52.839Z,27.55
2023-05-19T13:49:56.931Z,28.17
2023-05-19T13:51:04.647Z,28.25
2023-05-19T13:52:08.400Z,28.57
2023-05-19T13:53:11.872Z,29.11
2023-05-19T13:54:14.646Z,29.36
2023-05-19T13:55:19.451Z,29.49
2023-05-19T13:56:22.395Z,29.63
2023-05-19T13:57:30.107Z,29.60
2023-05-19T13:58:34.234Z,29.61
2023-05-19T13:59:43.047Z,29.77
2023-05-19T14:00:59.968Z,30.32
2023-05-19T14:02:05.856Z,30.51
2023-05-19T14:03:09.910Z,30.71
2023-05-19T14:04:13.122Z,30.85
2023-05-19T14:05:17.305Z,31.36
2023-05-19T14:06:21.855Z,31.38
2023-05-19T14:07:25.993Z,31.63
2023-05-19T14:08:30.169Z,31.80
2023-05-19T14:09:33.282Z,31.81